Time;durP1;ratioP1;P1;durP2;ratioP2;P2;SDS_P1;SDS_P2;PMS_P1;PMS_P2;Temp;Humidity;BMP_temperature;BMP_pressure;BME280_temperature;BME280_humidity;BME280_pressure;Samples;Min_cycle;Max_cycle;Signal;HPM_P1;HPM_P2
2022/03/21 00:01:56;;;;;;;162.03;74.73;;;2.80;99.90;;;;;;4962782;28;20067;-89
2022/03/21 00:04:25;;;;;;;155.67;72.50;;;2.80;99.90;;;;;;4995814;28;20446;-92
2022/03/21 00:06:50;;;;;;;144.50;69.63;;;2.70;99.90;;;;;;4979272;28;20046;-90
2022/03/21 00:09:16;;;;;;;160.10;71.03;;;2.90;99.90;;;;;;4962996;28;20053;-93
2022/03/21 00:11:42;;;;;;;151.07;71.27;;;2.70;99.90;;;;;;4995400;28;20159;-89
2022/03/21 00:14:11;;;;;;;159.73;72.97;;;3.00;99.90;;;;;;4979095;28;20085;-91
2022/03/21 00:16:41;;;;;;;156.10;70.60;;;2.70;99.90;;;;;;4963738;28;20050;-91
2022/03/21 00:19:07;;;;;;;158.57;71.83;;;2.70;99.90;;;;;;4963278;28;20492;-90
2022/03/21 00:21:34;;;;;;;152.43;68.83;;;2.70;99.90;;;;;;4962930;28;20097;-92
2022/03/21 00:24:01;;;;;;;155.93;70.27;;;2.60;99.90;;;;;;4962936;28;20054;-93
2022/03/21 00:26:27;;;;;;;153.50;73.50;;;2.50;99.90;;;;;;4978750;28;20042;-92
2022/03/21 00:28:53;;;;;;;157.23;69.87;;;2.50;99.90;;;;;;4978160;28;20046;-89
2022/03/21 00:31:19;;;;;;;157.47;68.53;;;2.40;99.90;;;;;;4962848;28;20396;-89
2022/03/21 00:33:45;;;;;;;155.27;73.40;;;2.30;99.90;;;;;;4980329;28;20106;-89
2022/03/21 00:36:11;;;;;;;143.63;66.43;;;2.30;99.90;;;;;;4962589;28;20073;-89
2022/03/21 00:38:37;;;;;;;161.53;74.63;;;2.20;99.90;;;;;;4962699;28;20386;-92
2022/03/21 00:41:05;;;;;;;161.43;71.70;;;2.20;99.90;;;;;;4978620;28;20042;-89
2022/03/21 00:43:30;;;;;;;165.57;74.03;;;2.20;99.90;;;;;;4978945;28;20046;-93
2022/03/21 00:45:57;;;;;;;161.23;72.60;;;2.20;99.90;;;;;;4962377;28;20518;-91
2022/03/21 00:48:25;;;;;;;163.40;73.77;;;2.20;99.90;;;;;;4978778;28;20050;-93
2022/03/21 00:50:53;;;;;;;157.23;72.73;;;2.20;99.90;;;;;;4962578;28;20413;-90
2022/03/21 00:53:19;;;;;;;160.87;74.60;;;2.20;99.90;;;;;;4978742;28;20046;-90
2022/03/21 00:55:46;;;;;;;162.83;72.33;;;2.20;99.90;;;;;;4994734;28;20049;-90
2022/03/21 00:58:12;;;;;;;160.20;73.13;;;2.20;99.90;;;;;;4978781;28;20052;-92
2022/03/21 01:00:38;;;;;;;164.93;73.67;;;2.10;99.90;;;;;;4962521;28;20133;-94
2022/03/21 01:03:04;;;;;;;170.97;73.60;;;2.10;99.90;;;;;;4962265;28;20046;-90
2022/03/21 01:05:31;;;;;;;162.63;72.43;;;2.00;99.90;;;;;;4994186;28;20056;-91
2022/03/21 01:07:58;;;;;;;159.43;70.87;;;2.00;99.90;;;;;;4994805;28;20489;-90
2022/03/21 01:10:26;;;;;;;154.40;69.67;;;2.00;99.90;;;;;;4978669;28;20046;-92
2022/03/21 01:12:52;;;;;;;165.10;72.37;;;1.90;99.90;;;;;;4978685;28;20095;-90
2022/03/21 01:15:20;;;;;;;154.93;66.67;;;1.90;99.90;;;;;;4962418;28;20068;-93
2022/03/21 01:17:47;;;;;;;153.23;69.93;;;1.90;99.90;;;;;;4978093;28;20043;-89
2022/03/21 01:20:16;;;;;;;144.70;67.37;;;1.70;99.90;;;;;;4994081;28;20050;-92
2022/03/21 01:22:42;;;;;;;151.07;66.50;;;1.70;99.90;;;;;;4993914;28;20120;-92
2022/03/21 01:25:10;;;;;;;159.00;67.10;;;1.60;99.90;;;;;;4977876;28;20524;-89
2022/03/21 01:27:36;;;;;;;155.37;66.27;;;1.60;99.90;;;;;;4978040;28;20226;-92
2022/03/21 01:30:10;;;;;;;168.70;69.47;;;1.50;99.90;;;;;;4993908;28;20053;-89
2022/03/21 01:32:36;;;;;;;169.23;66.10;;;1.40;99.90;;;;;;4979170;28;20047;-93
2022/03/21 01:35:03;;;;;;;164.97;68.57;;;1.40;99.90;;;;;;4977638;28;20042;-90
2022/03/21 01:37:29;;;;;;;169.43;71.57;;;1.40;99.90;;;;;;4993863;28;20452;-89
2022/03/21 01:39:55;;;;;;;181.03;70.63;;;1.40;99.90;;;;;;4961474;28;20042;-88
2022/03/21 01:42:21;;;;;;;172.17;68.97;;;1.40;99.90;;;;;;4961390;28;20053;-93
2022/03/21 01:44:51;;;;;;;180.90;72.13;;;1.30;99.90;;;;;;4977556;28;20049;-92
2022/03/21 01:47:17;;;;;;;172.20;66.57;;;1.30;99.90;;;;;;4978392;28;20097;-92
2022/03/21 01:49:43;;;;;;;165.30;66.73;;;1.30;99.90;;;;;;4961370;28;20105;-89
2022/03/21 01:52:09;;;;;;;173.60;69.47;;;1.30;99.90;;;;;;4961513;28;20046;-93
2022/03/21 01:57:20;;;;;;;177.83;65.73;;;1.30;99.90;;;;;;4980132;28;20481;-92
2022/03/21 01:59:47;;;;;;;167.23;65.83;;;1.20;99.90;;;;;;4961649;28;20085;-92
2022/03/21 02:02:13;;;;;;;172.97;66.43;;;1.20;99.90;;;;;;4972987;28;20094;-90
2022/03/21 02:04:39;;;;;;;184.17;67.03;;;1.10;99.90;;;;;;4961072;28;20085;-92
2022/03/21 02:07:05;;;;;;;175.67;65.87;;;1.10;99.90;;;;;;4961018;28;20050;-92
2022/03/21 02:09:31;;;;;;;168.63;62.90;;;1.30;99.90;;;;;;4961185;28;20043;-91
2022/03/21 02:11:57;;;;;;;164.77;63.23;;;1.00;99.90;;;;;;4961034;28;20539;-93
2022/03/21 02:14:24;;;;;;;164.33;63.07;;;1.00;99.90;;;;;;4977256;28;20038;-89
2022/03/21 02:16:49;;;;;;;160.27;60.80;;;0.90;99.90;;;;;;4961206;28;20046;-89
2022/03/21 02:19:15;;;;;;;173.73;63.73;;;0.90;99.90;;;;;;4977045;28;20265;-89
2022/03/21 02:21:58;;;;;;;164.53;62.03;;;0.90;99.90;;;;;;4977071;28;20085;-89
2022/03/21 02:24:33;;;;;;;163.30;62.17;;;0.90;99.90;;;;;;4977167;28;20481;-93
2022/03/21 02:27:00;;;;;;;166.47;62.13;;;0.90;99.90;;;;;;4976636;28;20050;-92
2022/03/21 02:29:27;;;;;;;161.63;60.23;;;0.90;99.90;;;;;;4977580;28;20059;-93
2022/03/21 02:31:57;;;;;;;164.20;59.63;;;0.90;99.90;;;;;;4992839;28;20133;-93
2022/03/21 02:34:25;;;;;;;151.67;56.73;;;0.90;99.90;;;;;;4977320;28;20058;-92
2022/03/21 02:36:54;;;;;;;138.60;53.77;;;0.70;99.90;;;;;;4992786;28;20053;-89
2022/03/21 02:39:21;;;;;;;143.50;55.03;;;0.60;99.90;;;;;;4976736;28;20046;-89
2022/03/21 02:41:47;;;;;;;146.73;54.17;;;0.40;99.90;;;;;;4976421;28;20065;-93
2022/03/21 02:44:13;;;;;;;138.83;53.03;;;0.30;99.90;;;;;;4961154;28;20073;-92
2022/03/21 02:46:39;;;;;;;140.73;51.03;;;0.20;99.90;;;;;;4992791;28;20047;-90
2022/03/21 02:49:06;;;;;;;142.00;51.57;;;0.10;99.90;;;;;;4976582;28;20481;-89
2022/03/21 02:51:37;;;;;;;156.13;53.80;;;-0.10;99.90;;;;;;4960964;28;20093;-93
2022/03/21 02:54:03;;;;;;;159.03;55.67;;;-0.20;99.90;;;;;;4980521;28;20046;-93
2022/03/21 02:56:29;;;;;;;158.73;56.53;;;-0.20;99.90;;;;;;4980542;28;20133;-89
2022/03/21 02:58:55;;;;;;;167.90;55.93;;;-0.20;99.90;;;;;;4964461;28;20053;-87
2022/03/21 03:01:21;;;;;;;169.07;57.93;;;-0.20;99.90;;;;;;4964065;28;20093;-90
2022/03/21 03:03:47;;;;;;;163.63;59.10;;;-0.20;99.90;;;;;;4980355;28;20077;-90
2022/03/21 03:06:13;;;;;;;175.93;58.50;;;-0.20;99.90;;;;;;4980224;28;20390;-93
2022/03/21 03:08:41;;;;;;;191.37;60.37;;;-0.10;99.90;;;;;;4964341;28;20049;-89
2022/03/21 03:11:06;;;;;;;172.63;57.77;;;0.00;99.90;;;;;;4980324;28;20050;-94
2022/03/21 03:13:32;;;;;;;199.20;61.33;;;0.00;99.90;;;;;;4980906;28;20053;-92
2022/03/21 03:15:59;;;;;;;203.10;64.57;;;0.10;99.90;;;;;;4980061;28;20043;-89
2022/03/21 03:18:25;;;;;;;222.60;65.50;;;0.20;99.90;;;;;;4964299;28;20053;-90
2022/03/21 03:20:55;;;;;;;205.40;63.50;;;0.40;99.90;;;;;;4996526;28;20393;-92
2022/03/21 03:23:23;;;;;;;214.27;61.20;;;0.50;99.90;;;;;;4979966;28;20161;-92
2022/03/21 03:26:03;;;;;;;191.43;62.47;;;0.50;99.90;;;;;;4996575;28;20563;-92
2022/03/21 03:28:31;;;;;;;194.43;60.73;;;0.60;99.90;;;;;;4996543;28;20042;-92
2022/03/21 03:30:59;;;;;;;197.37;61.70;;;0.60;99.90;;;;;;4980191;28;20068;-92
2022/03/21 03:33:26;;;;;;;187.17;57.90;;;0.60;99.90;;;;;;4964482;28;20061;-93
2022/03/21 03:35:52;;;;;;;197.07;57.73;;;0.60;99.90;;;;;;4979798;28;20046;-90
2022/03/21 03:38:19;;;;;;;171.37;55.23;;;0.50;99.90;;;;;;4963930;28;20054;-89
2022/03/21 03:40:45;;;;;;;174.33;56.33;;;0.50;99.90;;;;;;4980395;28;20061;-93
2022/03/21 03:43:12;;;;;;;173.90;56.80;;;0.50;99.90;;;;;;4979596;28;20523;-92
2022/03/21 03:45:38;;;;;;;174.73;51.97;;;0.50;99.90;;;;;;4979969;28;20054;-89
2022/03/21 03:48:05;;;;;;;171.53;53.67;;;0.50;99.90;;;;;;4996000;28;20050;-93
2022/03/21 03:50:30;;;;;;;173.57;51.43;;;0.50;99.90;;;;;;4979618;28;20150;-89
2022/03/21 03:52:56;;;;;;;152.77;49.60;;;0.50;99.90;;;;;;4963304;28;20080;-89
2022/03/21 03:55:22;;;;;;;160.13;51.27;;;0.50;99.90;;;;;;4963910;28;20150;-87
2022/03/21 03:57:48;;;;;;;168.13;51.73;;;0.50;99.90;;;;;;4979931;28;20393;-92
2022/03/21 04:00:16;;;;;;;144.20;47.27;;;0.60;99.90;;;;;;4979422;28;20035;-92
2022/03/21 04:05:27;;;;;;;163.07;49.33;;;0.60;99.90;;;;;;4995804;28;20046;-93
2022/03/21 04:07:54;;;;;;;155.17;48.50;;;0.80;99.90;;;;;;4979313;28;20050;-93
2022/03/21 04:10:21;;;;;;;148.10;46.67;;;0.60;99.90;;;;;;4963662;28;20100;-91
2022/03/21 04:12:48;;;;;;;153.40;47.53;;;0.60;99.90;;;;;;4979063;28;20083;-89
2022/03/21 04:15:15;;;;;;;143.00;45.07;;;0.60;99.90;;;;;;4963361;28;20501;-92
2022/03/21 04:17:41;;;;;;;159.70;45.73;;;0.50;99.90;;;;;;4995383;28;20050;-93
2022/03/21 04:20:08;;;;;;;146.00;44.73;;;0.40;99.90;;;;;;4962792;28;20134;-89
2022/03/21 04:22:35;;;;;;;140.03;44.53;;;0.30;99.90;;;;;;4979148;28;20046;-89
2022/03/21 04:25:03;;;;;;;154.30;46.30;;;0.30;99.90;;;;;;4979265;28;20083;-92
2022/03/21 04:27:29;;;;;;;146.33;44.07;;;0.30;99.90;;;;;;4979059;28;20046;-88
2022/03/21 04:29:55;;;;;;;161.00;46.43;;;0.20;99.90;;;;;;4978717;28;20045;-91
2022/03/21 04:32:21;;;;;;;154.87;45.13;;;0.30;99.90;;;;;;4962519;28;20436;-88
2022/03/21 04:34:46;;;;;;;170.63;47.20;;;0.30;99.90;;;;;;4962331;28;20092;-88
2022/03/21 04:37:12;;;;;;;154.40;46.80;;;0.30;99.90;;;;;;4963033;28;20077;-93
2022/03/21 04:39:38;;;;;;;148.67;45.00;;;0.30;99.90;;;;;;4978756;28;20097;-89
2022/03/21 04:42:04;;;;;;;149.73;45.13;;;0.40;99.90;;;;;;4962388;28;20069;-89
2022/03/21 04:44:30;;;;;;;164.70;45.63;;;0.40;99.90;;;;;;4978544;28;20050;-92
2022/03/21 04:46:56;;;;;;;157.07;45.47;;;0.40;99.90;;;;;;4962562;28;20042;-91
2022/03/21 04:49:21;;;;;;;164.03;43.67;;;0.30;99.90;;;;;;4962630;28;20096;-93
2022/03/21 04:51:47;;;;;;;125.63;39.93;;;0.30;99.90;;;;;;4962046;28;20074;-93
2022/03/21 04:54:13;;;;;;;135.13;41.43;;;0.20;99.90;;;;;;4962078;28;20042;-89
2022/03/21 04:56:38;;;;;;;128.77;40.03;;;0.20;99.90;;;;;;4978217;28;20042;-88
2022/03/21 04:59:04;;;;;;;145.97;42.27;;;0.40;99.90;;;;;;4978363;28;20081;-89
2022/03/21 05:01:30;;;;;;;156.57;43.70;;;0.10;99.90;;;;;;4961971;28;20058;-92
2022/03/21 05:03:56;;;;;;;133.70;41.23;;;0.20;99.90;;;;;;4977809;28;20050;-91
2022/03/21 05:06:23;;;;;;;143.63;41.57;;;0.10;99.90;;;;;;4961935;28;20056;-93
2022/03/21 05:08:50;;;;;;;145.27;42.10;;;0.10;99.90;;;;;;4962083;28;20081;-88
2022/03/21 05:11:16;;;;;;;134.10;41.73;;;0.10;99.90;;;;;;4962063;28;20050;-89
2022/03/21 05:13:42;;;;;;;140.27;42.40;;;0.10;99.90;;;;;;4961637;28;20112;-88
2022/03/21 05:16:08;;;;;;;144.30;40.60;;;0.00;99.90;;;;;;4993819;28;20078;-93
2022/03/21 05:18:34;;;;;;;133.77;40.03;;;0.00;99.90;;;;;;4978102;28;20046;-92
2022/03/21 05:21:05;;;;;;;143.07;39.40;;;0.00;99.90;;;;;;4977634;28;20046;-92
2022/03/21 05:31:45;;;;;;;130.37;38.50;;;0.00;99.90;;;;;;4980194;28;20105;-91
2022/03/21 05:36:55;;;;;;;153.63;40.40;;;-0.10;99.90;;;;;;4993378;28;20097;-89
2022/03/21 05:39:30;;;;;;;141.73;39.73;;;0.20;99.90;;;;;;4976997;28;20050;-88
2022/03/21 05:41:55;;;;;;;146.73;40.83;;;-0.10;99.90;;;;;;4962076;28;20489;-88
2022/03/21 05:44:24;;;;;;;124.50;38.63;;;0.00;99.90;;;;;;4977645;28;20375;-91
2022/03/21 05:46:50;;;;;;;133.57;39.20;;;0.00;99.90;;;;;;4961372;28;20054;-92
2022/03/21 05:49:16;;;;;;;136.63;40.40;;;0.00;99.90;;;;;;4977279;28;20050;-89
2022/03/21 05:51:43;;;;;;;134.47;40.07;;;0.00;99.90;;;;;;4976656;28;20050;-94
2022/03/21 05:54:13;;;;;;;149.73;42.50;;;-0.10;99.90;;;;;;4961718;28;20038;-92
2022/03/21 05:56:44;;;;;;;152.97;41.33;;;0.00;99.90;;;;;;4993159;28;20050;-92
2022/03/21 06:01:54;;;;;;;167.30;42.43;;;0.00;99.90;;;;;;4979280;28;20065;-89
2022/03/21 06:04:22;;;;;;;140.40;41.97;;;0.10;99.90;;;;;;4976760;28;20054;-88
2022/03/21 06:06:48;;;;;;;153.30;42.77;;;0.10;99.90;;;;;;4976838;28;20046;-88
2022/03/21 06:09:15;;;;;;;147.70;42.03;;;0.20;99.90;;;;;;4960704;28;20520;-88
2022/03/21 06:11:40;;;;;;;168.40;43.27;;;0.20;99.90;;;;;;4977018;28;20047;-89
2022/03/21 06:14:09;;;;;;;149.67;44.80;;;0.40;99.90;;;;;;4977196;28;20050;-88
2022/03/21 06:16:35;;;;;;;181.60;46.47;;;0.40;99.90;;;;;;4977272;28;20390;-88
2022/03/21 06:19:01;;;;;;;179.03;44.93;;;0.50;99.90;;;;;;4993686;28;20145;-92
2022/03/21 06:21:30;;;;;;;155.83;44.73;;;0.50;99.90;;;;;;4960386;28;20081;-89
2022/03/21 06:23:57;;;;;;;162.37;44.47;;;0.50;99.90;;;;;;4976568;28;20337;-93
2022/03/21 06:26:22;;;;;;;166.53;44.50;;;0.80;99.90;;;;;;4978539;28;20390;-88
2022/03/21 06:28:48;;;;;;;144.50;40.87;;;0.70;99.90;;;;;;4996949;28;20133;-91
2022/03/21 06:31:15;;;;;;;152.57;43.80;;;0.80;99.90;;;;;;4997061;28;20129;-93
2022/03/21 06:33:40;;;;;;;154.87;42.10;;;0.90;99.90;;;;;;4998014;28;20050;-87
2022/03/21 06:36:07;;;;;;;161.43;43.83;;;0.90;99.90;;;;;;4964172;28;20062;-89
2022/03/21 06:38:33;;;;;;;162.57;43.80;;;1.00;99.90;;;;;;4964537;28;20478;-89
2022/03/21 06:41:00;;;;;;;167.63;45.53;;;1.00;99.90;;;;;;4996924;28;20049;-89
2022/03/21 06:43:27;;;;;;;142.67;42.30;;;1.00;99.90;;;;;;4980777;28;20046;-89
2022/03/21 06:45:54;;;;;;;127.87;42.17;;;1.10;99.90;;;;;;4982403;28;20421;-89
2022/03/21 06:48:21;;;;;;;138.03;43.90;;;1.10;99.90;;;;;;4964703;28;20049;-90
2022/03/21 06:50:48;;;;;;;153.83;43.93;;;1.30;99.90;;;;;;4964249;28;20129;-88
2022/03/21 06:53:15;;;;;;;142.97;42.67;;;1.30;99.90;;;;;;4979921;28;20128;-88
2022/03/21 06:55:41;;;;;;;135.13;43.27;;;1.40;99.90;;;;;;4979913;28;20049;-88
2022/03/21 06:58:11;;;;;;;120.63;42.27;;;1.50;99.90;;;;;;4981200;28;20057;-93
2022/03/21 07:00:46;;;;;;;126.67;39.87;;;1.60;99.90;;;;;;4980971;28;20387;-93
2022/03/21 07:03:15;;;;;;;128.97;42.20;;;1.70;99.90;;;;;;4996502;28;20137;-88
2022/03/21 07:05:41;;;;;;;129.90;40.93;;;1.80;99.90;;;;;;4965195;28;20043;-92
2022/03/21 07:08:08;;;;;;;125.43;42.57;;;1.80;99.90;;;;;;4979976;28;20445;-88
2022/03/21 07:10:34;;;;;;;129.43;42.43;;;2.20;99.90;;;;;;4980481;28;20043;-87
2022/03/21 07:13:07;;;;;;;130.37;41.67;;;2.00;99.90;;;;;;4995480;28;20054;-92
2022/03/21 07:15:33;;;;;;;130.82;42.00;;;2.00;99.90;;;;;;4980229;28;20061;-88
2022/03/21 07:17:59;;;;;;;102.73;37.43;;;2.30;99.90;;;;;;4963818;28;20185;-92
2022/03/21 07:20:25;;;;;;;111.13;39.23;;;2.10;99.90;;;;;;4982134;28;20046;-88
2022/03/21 07:22:56;;;;;;;118.00;40.67;;;2.20;99.90;;;;;;4979439;28;20089;-88
2022/03/21 07:25:22;;;;;;;124.60;40.53;;;2.20;99.90;;;;;;4995470;28;20056;-88
2022/03/21 07:27:48;;;;;;;107.63;39.63;;;2.30;99.90;;;;;;4980174;28;20042;-93
2022/03/21 07:30:14;;;;;;;116.47;41.07;;;2.30;99.90;;;;;;4979508;28;20100;-92
2022/03/21 07:32:42;;;;;;;114.70;40.53;;;2.40;99.90;;;;;;4963628;28;20057;-93
2022/03/21 07:35:08;;;;;;;123.53;43.00;;;2.50;99.90;;;;;;4980076;28;20113;-87
2022/03/21 07:37:53;;;;;;;113.27;44.40;;;2.60;99.90;;;;;;4978631;28;20065;-88
2022/03/21 07:40:19;;;;;;;118.03;44.33;;;2.70;99.90;;;;;;4979065;28;20104;-88
2022/03/21 07:42:47;;;;;;;128.90;44.37;;;2.80;99.90;;;;;;4962826;28;20088;-89
2022/03/21 07:47:59;;;;;;;123.17;44.83;;;2.90;99.90;;;;;;4995636;28;20050;-92
2022/03/21 07:50:26;;;;;;;117.80;46.63;;;3.10;99.90;;;;;;4979460;28;20078;-87
2022/03/21 07:52:53;;;;;;;124.67;46.60;;;3.20;99.90;;;;;;4963143;28;20478;-88
2022/03/21 07:55:20;;;;;;;111.03;45.03;;;3.40;99.90;;;;;;4995780;28;20046;-88
2022/03/21 07:57:46;;;;;;;122.67;48.13;;;3.50;99.90;;;;;;4962752;28;20050;-91
2022/03/21 08:00:13;;;;;;;124.63;47.53;;;3.60;99.90;;;;;;4979790;28;20053;-91
2022/03/21 08:02:39;;;;;;;136.20;49.05;;;3.60;99.90;;;;;;4978849;28;20185;-88
2022/03/21 08:05:06;;;;;;;136.98;51.20;;;3.80;99.90;;;;;;4962702;28;20050;-93
2022/03/21 08:07:34;;;;;;;137.80;50.20;;;3.90;99.90;;;;;;4979100;28;20050;-93
2022/03/21 08:10:00;;;;;;;113.70;49.03;;;4.10;99.90;;;;;;4980151;28;20043;-93
2022/03/21 08:12:26;;;;;;;125.97;51.33;;;4.10;99.90;;;;;;4962884;28;20100;-93
2022/03/21 08:14:52;;;;;;;112.28;49.75;;;4.40;99.90;;;;;;4962954;28;20488;-88
2022/03/21 08:17:18;;;;;;;111.63;47.88;;;4.40;99.90;;;;;;4962475;28;20093;-89
2022/03/21 08:19:44;;;;;;;93.70;46.97;;;4.70;99.90;;;;;;4978663;28;20081;-89
2022/03/21 08:22:11;;;;;;;107.32;48.92;;;4.80;99.90;;;;;;4994906;28;20070;-89
2022/03/21 08:24:37;;;;;;;115.32;49.00;;;4.90;99.90;;;;;;4978751;28;20050;-92
2022/03/21 08:27:05;;;;;;;110.55;46.55;;;5.10;99.90;;;;;;4978838;28;20520;-91
2022/03/21 08:29:31;;;;;;;93.38;44.17;;;5.20;99.90;;;;;;4962929;28;20046;-92
2022/03/21 08:31:57;;;;;;;99.10;42.80;;;5.40;99.90;;;;;;4979200;28;20057;-90
2022/03/21 08:34:23;;;;;;;89.45;43.63;;;5.50;99.90;;;;;;4978959;28;20498;-89
2022/03/21 08:36:49;;;;;;;81.45;41.95;;;5.50;99.90;;;;;;4994267;28;20038;-91
2022/03/21 08:39:15;;;;;;;83.90;42.10;;;5.70;99.90;;;;;;4978711;28;20050;-89
2022/03/21 08:41:41;;;;;;;78.82;42.15;;;5.80;99.90;;;;;;4979505;28;20100;-89
2022/03/21 08:44:07;;;;;;;74.40;39.95;;;5.80;99.90;;;;;;4962125;28;20046;-89
2022/03/21 08:46:33;;;;;;;79.60;40.88;;;5.90;99.90;;;;;;4978298;28;20050;-92
2022/03/21 08:51:43;;;;;;;64.50;37.15;;;6.10;99.90;;;;;;4980961;28;20057;-92
2022/03/21 08:54:10;;;;;;;73.85;38.55;;;6.20;99.90;;;;;;4962418;28;20046;-92
2022/03/21 08:56:36;;;;;;;64.20;36.40;;;6.30;99.90;;;;;;4977929;28;20043;-89
2022/03/21 08:59:02;;;;;;;57.63;36.70;;;6.30;99.90;;;;;;4978121;28;20050;-92
2022/03/21 09:01:28;;;;;;;60.78;36.35;;;6.40;99.90;;;;;;4977838;28;20046;-92
2022/03/21 09:03:55;;;;;;;59.42;35.47;;;6.50;99.90;;;;;;4962100;28;20077;-92
2022/03/21 09:06:22;;;;;;;64.20;35.28;;;6.60;99.90;;;;;;4978505;28;20138;-90
2022/03/21 09:08:49;;;;;;;57.75;33.85;;;6.70;99.90;;;;;;4979189;28;20128;-92
2022/03/21 09:11:17;;;;;;;60.42;34.63;;;6.70;99.90;;;;;;4978006;28;20050;-89
2022/03/21 09:13:47;;;;;;;59.20;35.75;;;6.90;99.90;;;;;;4978133;28;20133;-91
2022/03/21 09:16:14;;;;;;;52.90;33.75;;;7.00;99.90;;;;;;4978476;28;20078;-92
2022/03/21 09:18:44;;;;;;;51.80;31.92;;;7.00;99.90;;;;;;4977765;28;20101;-93
2022/03/21 09:21:11;;;;;;;48.70;31.60;;;7.10;99.90;;;;;;4994186;28;20084;-90
2022/03/21 09:23:37;;;;;;;45.58;30.10;;;7.20;99.90;;;;;;4978859;28;20042;-91
2022/03/21 09:26:05;;;;;;;51.83;30.98;;;7.40;99.90;;;;;;4962154;28;20041;-90
2022/03/21 09:28:32;;;;;;;51.58;30.92;;;7.40;99.90;;;;;;4977991;28;20038;-90
2022/03/21 09:30:58;;;;;;;48.67;31.52;;;7.50;99.90;;;;;;4977519;28;20051;-92
2022/03/21 09:33:25;;;;;;;45.08;27.95;;;7.60;99.90;;;;;;4978028;28;20051;-91
2022/03/21 09:35:51;;;;;;;45.75;29.70;;;7.80;99.90;;;;;;4977935;28;20078;-92
2022/03/21 09:38:17;;;;;;;44.78;29.55;;;7.80;99.90;;;;;;4978922;28;20057;-90
2022/03/21 09:40:44;;;;;;;41.47;26.70;;;7.90;99.90;;;;;;4977634;28;20050;-92
2022/03/21 09:43:11;;;;;;;43.17;27.48;;;8.00;99.90;;;;;;4961400;28;20042;-90
2022/03/21 09:45:37;;;;;;;39.92;28.52;;;8.10;99.90;;;;;;4961596;28;20046;-93
2022/03/21 09:48:16;;;;;;;41.58;27.75;;;8.20;99.90;;;;;;4961590;28;20050;-92
2022/03/21 09:50:44;;;;;;;38.17;25.23;;;8.40;99.90;;;;;;4979114;28;20089;-91
2022/03/21 09:53:15;;;;;;;41.47;26.90;;;8.60;99.90;;;;;;4978547;28;20060;-91
2022/03/21 09:55:43;;;;;;;34.75;25.13;;;8.60;99.90;;;;;;4993715;28;20086;-93
2022/03/21 09:58:12;;;;;;;32.38;22.50;;;8.80;99.90;;;;;;4961431;28;20245;-91
2022/03/21 10:00:43;;;;;;;30.58;22.17;;;9.00;6.10;;;;;;4977250;28;20046;-92
2022/03/21 10:03:10;;;;;;;29.73;22.02;;;9.20;1.00;;;;;;4993235;28;20158;-92
2022/03/21 10:05:41;;;;;;;30.75;20.70;;;9.50;1.00;;;;;;4977548;28;20049;-91
2022/03/21 10:08:20;;;;;;;34.58;19.70;;;10.00;99.90;;;;;;4961377;28;20042;-93
2022/03/21 10:10:58;;;;;;;27.25;17.88;;;11.20;99.90;;;;;;4977596;28;20486;-92
2022/03/21 10:13:36;;;;;;;22.27;17.48;;;12.40;1.00;;;;;;4993486;28;20085;-92
2022/03/21 10:16:20;;;;;;;16.95;14.13;;;13.50;99.90;;;;;;4977176;28;20125;-92
2022/03/21 10:18:52;;;;;;;23.73;16.60;;;14.50;99.90;;;;;;4961432;28;20524;-92
2022/03/21 10:21:18;;;;;;;25.02;16.27;;;15.10;99.90;;;;;;4978022;28;20138;-93
2022/03/21 10:23:47;;;;;;;16.15;11.80;;;15.70;99.90;;;;;;4976951;28;20053;-93
2022/03/21 10:26:34;;;;;;;18.17;14.18;;;16.00;63.10;;;;;;4961450;28;20080;-94
2022/03/21 10:29:02;;;;;;;20.25;15.60;;;16.60;1.00;;;;;;4993553;28;20046;-93
2022/03/21 10:31:42;;;;;;;19.65;16.17;;;17.00;1.00;;;;;;4993508;28;20050;-93
2022/03/21 10:34:16;;;;;;;16.98;12.75;;;17.10;99.90;;;;;;4993651;28;20042;-93
2022/03/21 10:37:03;;;;;;;15.45;11.23;;;17.30;99.90;;;;;;4977081;28;20046;-93
2022/03/21 10:39:31;;;;;;;19.05;14.80;;;17.70;99.90;;;;;;4978386;28;20073;-93
2022/03/21 10:42:09;;;;;;;18.95;12.60;;;17.80;99.90;;;;;;4977178;28;20121;-92
2022/03/21 10:44:36;;;;;;;24.23;15.10;;;18.20;99.90;;;;;;4976979;28;20370;-92
2022/03/21 10:47:05;;;;;;;23.83;14.27;;;18.60;99.90;;;;;;4978282;28;20073;-93
2022/03/21 10:49:40;;;;;;;30.70;14.77;;;18.90;99.90;;;;;;4976902;28;20046;-93
2022/03/21 10:52:07;;;;;;;18.08;13.50;;;19.20;99.90;;;;;;4976823;28;20289;-92
2022/03/21 10:54:39;;;;;;;18.17;14.07;;;19.40;99.90;;;;;;4960853;28;20086;-92
2022/03/21 10:57:26;;;;;;;18.95;14.82;;;19.30;99.90;;;;;;4961239;28;20053;-93
2022/03/21 11:00:12;;;;;;;21.35;15.43;;;19.20;99.90;;;;;;4977073;28;20080;-92
2022/03/21 11:02:53;;;;;;;20.95;16.27;;;19.20;99.90;;;;;;4993622;28;20061;-93
2022/03/21 11:05:20;;;;;;;21.15;14.70;;;19.20;99.90;;;;;;4976831;28;20093;-92
2022/03/21 11:07:47;;;;;;;19.13;15.20;;;19.60;99.90;;;;;;4976712;28;20129;-93
2022/03/21 11:10:13;;;;;;;18.20;14.07;;;20.10;99.90;;;;;;4976856;28;20141;-92
2022/03/21 11:12:42;;;;;;;19.05;15.18;;;20.30;99.90;;;;;;4993486;28;20073;-92
2022/03/21 11:15:09;;;;;;;23.42;15.65;;;20.30;99.90;;;;;;4997574;28;20054;-93
2022/03/21 11:17:36;;;;;;;21.85;15.48;;;20.20;99.90;;;;;;4982121;28;20039;-93
2022/03/21 11:20:04;;;;;;;18.13;14.25;;;20.40;99.90;;;;;;4997682;28;20401;-92
2022/03/21 11:22:32;;;;;;;17.73;14.55;;;20.70;99.90;;;;;;4997553;28;20061;-94
2022/03/21 11:25:10;;;;;;;18.02;14.55;;;20.70;99.90;;;;;;4981426;28;20109;-93
2022/03/21 11:28:06;;;;;;;16.92;14.73;;;20.90;99.90;;;;;;4996935;28;20137;-93
2022/03/21 11:31:08;;;;;;;18.10;14.43;;;20.90;99.90;;;;;;4981739;28;20058;-94
2022/03/21 11:34:05;;;;;;;21.20;14.93;;;21.20;99.90;;;;;;4997022;28;20061;-93
2022/03/21 11:36:31;;;;;;;20.58;15.95;;;21.30;99.90;;;;;;4996965;28;20053;-93
2022/03/21 11:39:00;;;;;;;19.60;15.65;;;21.30;99.90;;;;;;4964904;28;20053;-91
2022/03/21 11:41:28;;;;;;;19.52;14.88;;;21.20;99.90;;;;;;4981688;28;20114;-92
2022/03/21 11:44:06;;;;;;;18.50;14.13;;;21.10;99.90;;;;;;4997930;28;20050;-92
2022/03/21 11:46:37;;;;;;;18.80;13.90;;;21.30;99.90;;;;;;4996642;28;20046;-94
2022/03/21 11:49:04;;;;;;;19.65;14.85;;;21.60;99.90;;;;;;4981177;28;20050;-93
2022/03/21 11:51:38;;;;;;;20.90;15.60;;;21.90;99.90;;;;;;4980669;28;20050;-94
2022/03/21 11:54:06;;;;;;;18.83;14.93;;;21.50;99.90;;;;;;4980758;28;20042;-95
2022/03/21 11:56:41;;;;;;;18.13;14.77;;;21.30;99.90;;;;;;4980965;28;20490;-93
2022/03/21 11:59:08;;;;;;;17.60;13.45;;;21.20;99.90;;;;;;4980682;28;20452;-92
2022/03/21 12:01:34;;;;;;;20.67;14.98;;;21.40;99.90;;;;;;4964354;28;20478;-93
2022/03/21 12:04:26;;;;;;;21.73;14.77;;;21.70;99.90;;;;;;4996764;28;20560;-92
2022/03/21 12:06:58;;;;;;;19.90;15.13;;;22.00;99.90;;;;;;4961606;28;20504;-90
2022/03/21 12:09:24;;;;;;;;;;;22.20;99.90;;;;;;4979586;28;20045;-92
2022/03/21 12:11:50;;;;;;;20.67;14.13;;;22.00;99.90;;;;;;4979700;28;19921;-92
2022/03/21 12:14:40;;;;;;;23.02;15.02;;;21.90;99.90;;;;;;4981129;28;20045;-91
2022/03/21 12:17:05;;;;;;;17.85;14.75;;;21.80;99.90;;;;;;4995800;28;20043;-92
2022/03/21 12:19:54;;;;;;;22.20;14.93;;;21.50;99.90;;;;;;4980497;28;20053;-93
2022/03/21 12:23:02;;;;;;;18.13;13.77;;;21.60;99.90;;;;;;4996440;28;20501;-92
2022/03/21 12:25:41;;;;;;;19.55;16.20;;;21.40;99.90;;;;;;4995740;28;20488;-92
2022/03/21 12:28:16;;;;;;;19.23;14.52;;;21.50;99.90;;;;;;4995718;28;20165;-94
2022/03/21 12:30:42;;;;;;;16.98;14.07;;;21.70;99.90;;;;;;4996174;28;20045;-91
2022/03/21 12:33:12;;;;;;;17.52;13.93;;;22.00;99.90;;;;;;4963696;28;20042;-91
2022/03/21 12:35:40;;;;;;;16.55;13.85;;;22.40;99.90;;;;;;4979947;28;20069;-91
2022/03/21 12:38:22;;;;;;;23.45;14.27;;;22.10;99.90;;;;;;4979638;28;20499;-93
2022/03/21 12:40:47;;;;;;;18.85;14.20;;;22.30;99.90;;;;;;4980680;28;20053;-91
2022/03/21 12:43:15;;;;;;;20.73;14.13;;;21.90;99.90;;;;;;4979265;28;20042;-90
2022/03/21 12:45:43;;;;;;;19.08;13.68;;;21.90;99.90;;;;;;4995147;28;20049;-91
2022/03/21 12:48:11;;;;;;;16.80;12.95;;;21.80;99.90;;;;;;4979807;28;20046;-92
2022/03/21 12:50:38;;;;;;;16.08;12.70;;;21.60;99.90;;;;;;4979658;28;20046;-92
2022/03/21 12:53:12;;;;;;;19.63;12.82;;;21.60;99.90;;;;;;4995970;28;20456;-91
2022/03/21 12:55:38;;;;;;;16.17;13.18;;;21.50;99.90;;;;;;4979227;28;20065;-94
2022/03/21 12:58:12;;;;;;;14.38;12.30;;;21.30;99.90;;;;;;4979502;28;20100;-93
2022/03/21 13:00:40;;;;;;;16.63;13.07;;;20.80;99.90;;;;;;4963620;28;20042;-92